createdAt,value
2024-01-25T00:02:17.803Z,8.57
2024-01-25T00:05:00.351Z,12.52
2024-01-25T00:07:50.628Z,12.73
2024-01-25T00:10:33.183Z,11.65
2024-01-25T00:13:15.887Z,14.82
2024-01-25T00:15:58.486Z,10.18
2024-01-25T00:18:41.389Z,9.90
2024-01-25T00:21:23.773Z,10.63
2024-01-25T00:24:06.541Z,12.13
2024-01-25T00:26:48.808Z,10.43
2024-01-25T00:29:32.254Z,10.77
2024-01-25T00:32:14.552Z,15.30
2024-01-25T00:34:57.706Z,15.48
2024-01-25T00:37:41.153Z,11.80
2024-01-25T00:40:24.034Z,12.02
2024-01-25T00:43:07.098Z,13.10
2024-01-25T00:45:50.125Z,10.57
2024-01-25T00:48:33.083Z,11.55
2024-01-25T00:51:24.077Z,14.25
2024-01-25T00:54:07.454Z,10.57
2024-01-25T00:56:53.612Z,10.05
2024-01-25T00:59:36.523Z,10.97
2024-01-25T01:02:22.818Z,8.68
2024-01-25T01:05:05.939Z,7.88
2024-01-25T01:07:49.021Z,5.63
2024-01-25T01:10:31.518Z,12.35
2024-01-25T01:13:14.374Z,5.97
2024-01-25T01:15:56.792Z,6.28
2024-01-25T01:18:39.900Z,11.80
2024-01-25T01:21:22.665Z,7.70
2024-01-25T01:24:05.467Z,7.85
2024-01-25T01:26:47.946Z,10.90
2024-01-25T01:29:30.485Z,10.07
2024-01-25T01:32:12.852Z,11.98
2024-01-25T01:34:55.449Z,14.35
2024-01-25T01:37:37.753Z,8.05
2024-01-25T01:40:20.469Z,8.25
2024-01-25T01:43:03.506Z,5.93
2024-01-25T01:45:46.570Z,15.27
2024-01-25T01:48:29.026Z,15.20
2024-01-25T01:51:12.044Z,12.00
2024-01-25T01:53:56.174Z,9.00
2024-01-25T01:56:41.120Z,7.38
2024-01-25T01:59:26.742Z,10.93
2024-01-25T02:02:09.478Z,11.02
2024-01-25T02:04:51.950Z,11.25
2024-01-25T02:07:34.822Z,8.60
2024-01-25T02:10:17.297Z,11.75
2024-01-25T02:13:00.018Z,12.02
2024-01-25T02:15:43.162Z,11.27
2024-01-25T02:18:26.346Z,10.10
2024-01-25T02:21:08.718Z,12.38
2024-01-25T02:23:51.785Z,13.95
2024-01-25T02:26:35.408Z,9.80
2024-01-25T02:29:17.944Z,11.93
2024-01-25T02:32:00.247Z,15.63
2024-01-25T02:34:42.956Z,12.07
2024-01-25T02:37:25.342Z,8.32
2024-01-25T02:40:08.662Z,10.73
2024-01-25T02:42:50.877Z,8.43
2024-01-25T02:45:34.221Z,11.82
2024-01-25T02:48:16.695Z,9.40
2024-01-25T02:50:59.544Z,10.38
2024-01-25T02:53:42.248Z,11.20
2024-01-25T02:56:24.732Z,11.82
2024-01-25T02:59:06.918Z,11.68
2024-01-25T03:01:50.248Z,10.00
2024-01-25T03:04:32.759Z,10.95
2024-01-25T03:07:15.432Z,15.13
2024-01-25T03:09:57.723Z,10.30
2024-01-25T03:12:40.443Z,13.07
2024-01-25T03:15:22.739Z,11.15
2024-01-25T03:18:05.824Z,11.63
2024-01-25T03:20:48.560Z,13.65
2024-01-25T03:23:31.059Z,11.77
2024-01-25T03:26:13.315Z,11.13
2024-01-25T03:28:56.088Z,12.27
2024-01-25T03:31:38.723Z,13.43
2024-01-25T03:34:21.540Z,17.08
2024-01-25T03:37:04.224Z,20.00
2024-01-25T03:39:46.822Z,15.23
2024-01-25T03:42:29.062Z,16.83
2024-01-25T03:45:11.600Z,16.65
2024-01-25T03:47:53.851Z,13.10
2024-01-25T03:50:36.497Z,16.83
2024-01-25T03:53:18.768Z,15.98
2024-01-25T03:56:01.276Z,17.70
2024-01-25T03:58:43.680Z,16.40
2024-01-25T04:01:28.807Z,9.90
2024-01-25T04:04:12.414Z,19.13
2024-01-25T04:06:55.177Z,13.90
2024-01-25T04:09:38.403Z,15.10
2024-01-25T04:12:21.071Z,17.63
2024-01-25T04:15:03.641Z,16.60
2024-01-25T04:17:46.212Z,11.52
2024-01-25T04:20:29.261Z,25.95
2024-01-25T04:23:12.136Z,18.50
2024-01-25T04:25:56.597Z,15.38
2024-01-25T04:28:39.314Z,18.75
2024-01-25T04:31:21.672Z,17.45
2024-01-25T04:34:04.402Z,16.73
2024-01-25T04:36:46.823Z,15.05
2024-01-25T04:39:29.544Z,19.65
2024-01-25T04:42:11.847Z,15.43
2024-01-25T04:44:54.517Z,17.35
2024-01-25T04:47:40.199Z,20.35
2024-01-25T04:50:22.935Z,15.15
2024-01-25T04:53:05.457Z,18.40
2024-01-25T04:55:48.292Z,19.80
2024-01-25T04:58:30.618Z,25.63
2024-01-25T05:01:13.425Z,13.52
2024-01-25T05:03:56.827Z,16.38
2024-01-25T05:06:39.797Z,18.10
2024-01-25T05:09:22.151Z,19.63
2024-01-25T05:12:05.887Z,19.25
2024-01-25T05:14:48.270Z,19.95
2024-01-25T05:17:30.996Z,20.33
2024-01-25T05:20:14.649Z,19.08
2024-01-25T05:22:58.184Z,16.00
2024-01-25T05:25:40.597Z,18.02
2024-01-25T05:28:23.426Z,16.92
2024-01-25T05:31:06.569Z,20.58
2024-01-25T05:33:49.616Z,17.80
2024-01-25T05:36:32.363Z,18.30
2024-01-25T05:39:16.007Z,13.93
2024-01-25T05:41:58.321Z,12.32
2024-01-25T05:44:41.418Z,16.83
2024-01-25T05:47:23.742Z,15.75
2024-01-25T05:50:07.423Z,20.52
2024-01-25T05:52:49.706Z,18.95
2024-01-25T05:55:32.336Z,14.82
2024-01-25T05:58:14.760Z,20.00
2024-01-25T06:00:57.454Z,17.25
2024-01-25T06:03:39.942Z,19.45
2024-01-25T06:06:22.723Z,14.07
2024-01-25T06:09:12.476Z,19.45
2024-01-25T06:11:56.701Z,18.63
2024-01-25T06:14:39.182Z,16.58
2024-01-25T06:17:21.781Z,21.42
2024-01-25T06:20:04.653Z,18.20
2024-01-25T06:22:47.447Z,10.63
2024-01-25T06:25:32.376Z,17.33
2024-01-25T06:28:15.247Z,11.98
2024-01-25T06:30:57.974Z,19.08
2024-01-25T06:33:40.764Z,19.85
2024-01-25T06:36:27.678Z,14.43
2024-01-25T06:39:10.287Z,16.02
2024-01-25T06:41:52.504Z,22.55
2024-01-25T06:44:35.792Z,21.50
2024-01-25T06:47:20.650Z,21.13
2024-01-25T06:50:04.479Z,19.05
2024-01-25T06:52:46.882Z,23.25
2024-01-25T06:55:29.504Z,12.85
2024-01-25T06:58:11.887Z,14.95
2024-01-25T07:00:55.115Z,21.38
2024-01-25T07:03:38.669Z,18.30
2024-01-25T07:06:22.058Z,13.23
2024-01-25T07:09:04.606Z,19.38
2024-01-25T07:11:47.652Z,18.63
2024-01-25T07:14:29.893Z,19.90
2024-01-25T07:17:12.501Z,17.45
2024-01-25T07:19:54.821Z,19.27
2024-01-25T07:22:37.437Z,22.20
2024-01-25T07:25:19.777Z,16.50
2024-01-25T07:28:03.725Z,17.17
2024-01-25T07:30:51.151Z,9.90
2024-01-25T07:33:34.891Z,11.90
2024-01-25T07:36:18.049Z,17.40
2024-01-25T07:39:00.664Z,18.50
2024-01-25T07:41:43.082Z,16.38
2024-01-25T07:44:25.618Z,17.92
2024-01-25T07:47:08.795Z,15.77
2024-01-25T07:49:51.520Z,12.57
2024-01-25T07:52:34.078Z,14.88
2024-01-25T07:55:17.165Z,12.60
2024-01-25T07:57:59.585Z,15.75
2024-01-25T08:00:42.303Z,16.02
2024-01-25T08:03:25.154Z,21.38
2024-01-25T08:06:09.391Z,17.65
2024-01-25T08:08:51.890Z,16.27
2024-01-25T08:11:34.498Z,15.98
2024-01-25T08:14:16.854Z,19.63
2024-01-25T08:16:59.486Z,17.60
2024-01-25T08:19:42.069Z,15.23
2024-01-25T08:22:24.800Z,19.85
2024-01-25T08:25:07.601Z,15.82
2024-01-25T08:27:50.609Z,20.63
2024-01-25T08:30:33.677Z,13.02
2024-01-25T08:33:17.797Z,14.32
2024-01-25T08:36:00.916Z,21.60
2024-01-25T08:38:43.687Z,20.98
2024-01-25T08:41:25.987Z,16.05
2024-01-25T08:44:08.608Z,15.32
2024-01-25T08:46:50.888Z,14.43
2024-01-25T08:49:33.652Z,14.75
2024-01-25T08:52:16.684Z,12.95
2024-01-25T08:54:59.554Z,21.40
2024-01-25T08:57:42.325Z,13.10
2024-01-25T09:00:25.169Z,16.27
2024-01-25T09:03:07.490Z,15.23
2024-01-25T09:05:50.394Z,18.58
2024-01-25T09:08:34.186Z,18.35
2024-01-25T09:11:17.050Z,18.27
2024-01-25T09:13:59.316Z,19.38
2024-01-25T09:16:42.132Z,19.88
2024-01-25T09:19:24.683Z,20.10
2024-01-25T09:22:09.072Z,21.20
2024-01-25T09:24:51.591Z,21.20
2024-01-25T09:27:34.793Z,17.60
2024-01-25T09:30:17.426Z,18.80
2024-01-25T09:33:00.191Z,19.25
2024-01-25T09:35:42.646Z,21.77
2024-01-25T09:38:25.397Z,20.48
2024-01-25T09:41:07.778Z,19.10
2024-01-25T09:43:50.532Z,18.20
2024-01-25T09:46:33.723Z,20.98
2024-01-25T09:49:16.613Z,13.18
2024-01-25T09:52:04.861Z,17.70
2024-01-25T09:54:48.031Z,20.13
2024-01-25T09:57:32.874Z,19.83
2024-01-25T10:00:16.784Z,17.13
2024-01-25T10:02:59.480Z,18.58
2024-01-25T10:05:42.477Z,18.35
2024-01-25T10:08:25.306Z,18.58
2024-01-25T10:11:09.368Z,20.00
2024-01-25T10:13:52.284Z,16.95
2024-01-25T10:16:35.184Z,24.10
2024-01-25T10:19:18.595Z,18.50
2024-01-25T10:22:01.642Z,19.15
2024-01-25T10:24:44.441Z,17.65
2024-01-25T10:27:27.343Z,21.02
2024-01-25T10:30:12.379Z,14.45
2024-01-25T10:32:56.728Z,22.03
2024-01-25T10:35:39.432Z,17.83
2024-01-25T10:38:24.408Z,24.08
2024-01-25T10:41:07.270Z,28.88
2024-01-25T10:43:50.671Z,23.52
2024-01-25T10:46:34.611Z,15.32
2024-01-25T10:49:20.976Z,23.23
2024-01-25T10:52:05.567Z,20.48
2024-01-25T10:54:48.741Z,15.52
2024-01-25T10:57:44.596Z,18.88
2024-01-25T11:00:28.213Z,16.77
2024-01-25T11:03:11.363Z,25.50
2024-01-25T11:05:56.078Z,21.20
2024-01-25T11:08:39.979Z,18.13
2024-01-25T11:11:22.904Z,18.20
2024-01-25T11:14:05.178Z,18.00
2024-01-25T11:16:48.550Z,15.43
2024-01-25T11:19:31.251Z,17.92
2024-01-25T11:22:14.109Z,23.30
2024-01-25T11:24:56.394Z,19.45
2024-01-25T11:27:39.700Z,17.63
2024-01-25T11:30:23.154Z,15.38
2024-01-25T11:33:07.143Z,23.30
2024-01-25T11:35:56.669Z,25.15
2024-01-25T11:38:39.349Z,11.40
2024-01-25T11:41:21.981Z,18.00
2024-01-25T11:44:04.901Z,19.17
2024-01-25T11:46:47.444Z,18.55
2024-01-25T11:49:30.296Z,24.23
2024-01-25T11:52:12.635Z,27.42
2024-01-25T11:54:55.390Z,21.58
2024-01-25T11:57:44.875Z,18.85
2024-01-25T12:00:28.245Z,15.00
2024-01-25T12:03:15.220Z,18.00
2024-01-25T12:06:00.341Z,19.60
2024-01-25T12:08:43.223Z,14.05
2024-01-25T12:11:25.847Z,14.43
2024-01-25T12:14:09.844Z,17.02
2024-01-25T12:16:52.598Z,22.60
2024-01-25T12:19:35.932Z,12.98
2024-01-25T12:22:23.011Z,11.73
2024-01-25T12:25:10.255Z,11.77
2024-01-25T12:27:55.132Z,15.32
2024-01-25T12:30:37.522Z,22.52
2024-01-25T12:33:21.446Z,8.68
2024-01-25T12:36:05.335Z,15.43
2024-01-25T12:38:49.880Z,20.10
2024-01-25T12:41:34.352Z,15.82
2024-01-25T12:44:17.441Z,24.23
2024-01-25T12:47:02.716Z,14.15
2024-01-25T12:49:46.293Z,12.43
2024-01-25T12:52:29.287Z,13.07
2024-01-25T12:55:12.092Z,11.23
2024-01-25T12:57:56.076Z,11.90
2024-01-25T13:00:38.879Z,12.75
2024-01-25T13:03:21.347Z,23.85
2024-01-25T13:06:04.993Z,14.77
2024-01-25T13:08:47.317Z,19.13
2024-01-25T13:11:29.889Z,14.80
2024-01-25T13:14:12.183Z,16.08
2024-01-25T13:16:54.724Z,18.75
2024-01-25T13:19:37.226Z,16.95
2024-01-25T13:22:22.286Z,18.02
2024-01-25T13:25:05.385Z,17.17
2024-01-25T13:27:48.135Z,13.80
2024-01-25T13:30:30.796Z,17.73
2024-01-25T13:33:13.647Z,19.35
2024-01-25T13:35:55.999Z,21.52
2024-01-25T13:38:38.717Z,15.80
2024-01-25T13:41:21.103Z,20.08
2024-01-25T13:44:03.836Z,18.55
2024-01-25T13:46:46.123Z,19.65
2024-01-25T13:49:28.768Z,18.92
2024-01-25T13:52:20.648Z,23.92
2024-01-25T13:55:03.414Z,19.25
2024-01-25T13:57:45.944Z,23.15
2024-01-25T14:00:28.731Z,16.08
2024-01-25T14:03:11.411Z,19.92
2024-01-25T14:05:57.676Z,24.33
2024-01-25T14:08:40.572Z,17.67
2024-01-25T14:11:23.451Z,25.00
2024-01-25T14:14:05.836Z,22.05
2024-01-25T14:16:48.869Z,27.73
2024-01-25T14:19:31.628Z,25.25
2024-01-25T14:22:22.748Z,33.33
2024-01-25T14:25:13.180Z,24.77
2024-01-25T14:27:58.488Z,37.90
2024-01-25T14:30:42.328Z,19.83
2024-01-25T14:33:25.237Z,23.58
2024-01-25T14:36:07.829Z,20.02
2024-01-25T14:38:50.378Z,20.75
2024-01-25T14:41:34.502Z,25.77
2024-01-25T14:44:17.192Z,23.90
2024-01-25T14:47:00.495Z,17.25
2024-01-25T14:49:43.245Z,20.90
2024-01-25T14:52:25.658Z,22.73
2024-01-25T14:55:08.909Z,34.03
2024-01-25T14:57:51.808Z,21.75
2024-01-25T15:00:35.545Z,19.65
2024-01-25T15:03:18.694Z,26.40
2024-01-25T15:06:01.740Z,23.00
2024-01-25T15:08:44.315Z,30.10
2024-01-25T15:11:27.023Z,24.42
2024-01-25T15:14:09.453Z,31.90
2024-01-25T15:16:52.173Z,26.42
2024-01-25T15:19:35.013Z,34.15
2024-01-25T15:22:18.244Z,26.88
2024-01-25T15:25:00.816Z,44.80
2024-01-25T15:27:44.521Z,27.80
2024-01-25T15:30:27.323Z,31.98
2024-01-25T15:33:10.302Z,30.05
2024-01-25T15:35:55.185Z,31.75
2024-01-25T15:38:37.955Z,40.47
2024-01-25T15:41:23.329Z,31.27
2024-01-25T15:44:06.556Z,27.95
2024-01-25T15:46:49.079Z,33.92
2024-01-25T15:49:31.802Z,32.50
2024-01-25T15:52:15.689Z,24.50
2024-01-25T15:55:00.465Z,26.23
2024-01-25T15:57:42.884Z,25.67
2024-01-25T16:00:25.855Z,23.92
2024-01-25T16:03:08.290Z,22.40
2024-01-25T16:05:53.906Z,25.20
2024-01-25T16:08:38.444Z,25.23
2024-01-25T16:11:22.771Z,18.77
2024-01-25T16:14:05.200Z,17.02
2024-01-25T16:16:47.929Z,24.83
2024-01-25T16:19:30.609Z,32.92
2024-01-25T16:22:15.076Z,20.67
2024-01-25T16:24:57.586Z,24.67
2024-01-25T16:27:40.276Z,18.50
2024-01-25T16:30:22.827Z,20.15
2024-01-25T16:33:05.543Z,18.38
2024-01-25T16:35:47.821Z,19.13
2024-01-25T16:38:30.438Z,20.90
2024-01-25T16:41:12.928Z,20.95
2024-01-25T16:43:56.709Z,27.60
2024-01-25T16:46:39.275Z,27.20
2024-01-25T16:49:22.549Z,21.40
2024-01-25T16:52:05.790Z,17.55
2024-01-25T16:54:48.552Z,17.70
2024-01-25T16:57:30.956Z,17.92
2024-01-25T17:00:17.128Z,16.80
2024-01-25T17:03:01.172Z,21.67
2024-01-25T17:05:44.524Z,27.05
2024-01-25T17:08:26.892Z,19.80
2024-01-25T17:11:10.033Z,22.83
2024-01-25T17:13:52.320Z,16.52
2024-01-25T17:16:35.105Z,15.35
2024-01-25T17:19:17.696Z,21.55
2024-01-25T17:22:00.544Z,22.48
2024-01-25T17:24:42.978Z,16.52
2024-01-25T17:27:25.652Z,14.82
2024-01-25T17:30:08.821Z,14.40
2024-01-25T17:32:51.605Z,14.55
2024-01-25T17:35:34.021Z,12.07
2024-01-25T17:38:17.202Z,13.85
2024-01-25T17:40:59.656Z,11.32
2024-01-25T17:43:42.617Z,11.82
2024-01-25T17:46:25.210Z,18.17
2024-01-25T17:49:08.278Z,10.63
2024-01-25T17:51:50.816Z,12.52
2024-01-25T17:54:33.445Z,16.38
2024-01-25T17:57:15.876Z,17.90
2024-01-25T17:59:58.492Z,16.48
2024-01-25T18:02:40.882Z,13.15
2024-01-25T18:05:24.446Z,15.82
2024-01-25T18:08:06.990Z,14.20
2024-01-25T18:10:50.358Z,18.00
2024-01-25T18:13:32.704Z,14.70
2024-01-25T18:16:15.602Z,21.60
2024-01-25T18:18:57.915Z,24.98
2024-01-25T18:21:46.035Z,13.82
2024-01-25T18:24:29.035Z,18.15
2024-01-25T18:27:11.702Z,13.95
2024-01-25T18:29:53.984Z,13.32
2024-01-25T18:32:36.603Z,14.45
2024-01-25T18:35:19.002Z,17.45
2024-01-25T18:38:01.579Z,15.55
2024-01-25T18:40:43.982Z,15.70
2024-01-25T18:43:26.611Z,11.70
2024-01-25T18:46:09.448Z,12.10
2024-01-25T18:48:52.177Z,14.93
2024-01-25T18:51:35.241Z,17.90
2024-01-25T18:54:18.524Z,13.90
2024-01-25T18:57:02.383Z,11.43
2024-01-25T18:59:45.476Z,14.32
2024-01-25T19:02:28.715Z,8.75
2024-01-25T19:05:12.066Z,12.20
2024-01-25T19:07:55.444Z,8.00
2024-01-25T19:10:38.241Z,11.55
2024-01-25T19:13:21.596Z,9.43
2024-01-25T19:16:04.821Z,13.30
2024-01-25T19:18:47.849Z,13.27
2024-01-25T19:21:30.512Z,11.00
2024-01-25T19:24:16.979Z,10.43
2024-01-25T19:26:59.905Z,11.18
2024-01-25T19:29:42.269Z,13.45
2024-01-25T19:32:24.853Z,12.88
2024-01-25T19:35:07.581Z,12.52
2024-01-25T19:37:50.307Z,13.05
2024-01-25T19:40:32.638Z,11.68
2024-01-25T19:43:15.457Z,16.40
2024-01-25T19:45:59.214Z,12.63
2024-01-25T19:48:43.086Z,12.07
2024-01-25T19:51:25.547Z,9.20
2024-01-25T19:54:08.118Z,10.50
2024-01-25T19:56:50.406Z,12.90
2024-01-25T19:59:33.367Z,14.30
2024-01-25T20:02:15.867Z,13.77
2024-01-25T20:04:58.885Z,20.13
2024-01-25T20:07:41.736Z,15.93
2024-01-25T20:10:24.349Z,19.17
2024-01-25T20:13:06.963Z,15.90
2024-01-25T20:15:51.185Z,13.10
2024-01-25T20:18:33.737Z,10.02
2024-01-25T20:21:16.523Z,10.02
2024-01-25T20:23:58.968Z,9.80
2024-01-25T20:26:41.856Z,10.98
2024-01-25T20:29:24.123Z,14.30
2024-01-25T20:32:07.454Z,9.52
2024-01-25T20:34:53.569Z,16.42
2024-01-25T20:37:36.690Z,45.55
2024-01-25T20:40:18.963Z,61.90
2024-01-25T20:43:01.760Z,18.60
2024-01-25T20:45:44.200Z,8.30
2024-01-25T20:48:26.875Z,21.60
2024-01-25T20:51:09.128Z,43.88
2024-01-25T20:53:58.209Z,32.63
2024-01-25T20:56:46.353Z,20.88
2024-01-25T20:59:29.047Z,15.55
2024-01-25T21:02:11.588Z,20.38
2024-01-25T21:04:54.623Z,20.17
2024-01-25T21:07:37.173Z,13.77
2024-01-25T21:10:21.026Z,21.17
2024-01-25T21:13:03.732Z,18.20
2024-01-25T21:15:46.479Z,29.00
2024-01-25T21:18:29.001Z,15.50
2024-01-25T21:21:14.878Z,29.30
2024-01-25T21:23:57.268Z,15.15
2024-01-25T21:26:39.913Z,19.85
2024-01-25T21:29:23.239Z,25.52
2024-01-25T21:32:06.170Z,19.02
2024-01-25T21:34:48.487Z,26.58
2024-01-25T21:37:31.148Z,29.90
2024-01-25T21:40:13.873Z,18.48
2024-01-25T21:42:56.610Z,19.42
2024-01-25T21:45:39.886Z,20.95
2024-01-25T21:48:22.825Z,48.20
2024-01-25T21:51:08.299Z,21.20
2024-01-25T21:53:50.919Z,12.35
2024-01-25T21:56:33.242Z,8.80
2024-01-25T21:59:15.801Z,6.78
2024-01-25T22:01:58.097Z,10.50
2024-01-25T22:04:41.739Z,15.73
2024-01-25T22:07:24.236Z,8.85
2024-01-25T22:10:07.781Z,10.68
2024-01-25T22:12:50.145Z,8.32
2024-01-25T22:15:32.774Z,14.63
2024-01-25T22:18:15.158Z,13.02
2024-01-25T22:20:57.708Z,8.90
2024-01-25T22:23:39.950Z,6.32
2024-01-25T22:26:22.492Z,9.20
2024-01-25T22:29:07.503Z,9.57
2024-01-25T22:31:50.154Z,12.27
2024-01-25T22:34:33.733Z,11.57
2024-01-25T22:37:16.455Z,9.43
2024-01-25T22:39:58.760Z,9.38
2024-01-25T22:42:41.636Z,9.30
2024-01-25T22:45:24.305Z,10.13
2024-01-25T22:48:07.061Z,11.57
2024-01-25T22:50:49.849Z,11.82
2024-01-25T22:53:32.886Z,10.25
2024-01-25T22:56:15.777Z,8.43
2024-01-25T22:58:58.307Z,10.90
2024-01-25T23:01:41.026Z,8.50
2024-01-25T23:04:23.764Z,11.98
2024-01-25T23:07:06.852Z,17.67
2024-01-25T23:09:49.624Z,16.95
2024-01-25T23:12:31.982Z,21.67
2024-01-25T23:15:14.613Z,19.23
2024-01-25T23:17:57.219Z,14.98
2024-01-25T23:20:40.103Z,14.43
2024-01-25T23:23:22.446Z,14.68
2024-01-25T23:26:05.021Z,8.18
2024-01-25T23:28:47.256Z,10.73
2024-01-25T23:31:30.024Z,9.88
2024-01-25T23:34:13.020Z,9.18
2024-01-25T23:36:55.898Z,10.77
2024-01-25T23:39:38.296Z,9.25
2024-01-25T23:42:21.714Z,10.48
2024-01-25T23:45:04.505Z,11.82
2024-01-25T23:47:47.513Z,7.45
2024-01-25T23:50:30.160Z,7.18
2024-01-25T23:53:12.928Z,5.18
2024-01-25T23:55:55.150Z,7.45
2024-01-25T23:58:38.063Z,8.48
